Terminal Aerodrome Forecast
Issued by NWS Midland/Odessa, TX

Home | Current Version | Previous Version | Text Only | Print | Product List | Glossary On
Versions: 1 2 3 4 5 6 7 8 9 10 11 12 13 14 15 16 17 18 19
000
FTUS44 KMAF 051900 AAA
TAFMAF
TAF AMD
KMAF 051925Z 0519/0618 23012G22KT P6SM SCT050
     FM060100 16013KT P6SM BKN080
     FM060800 16012KT P6SM OVC015
     FM061000 17013KT P6SM OVC008
      TEMPO 0610/0614 4SM BR
     FM061400 18013KT P6SM SCT030=

USA.gov is the U.S. government's official web portal to all federal, state and local government web resources and services.